sensor_id;sensor_type;location;lat;lon;timestamp;P1;durP1;ratioP1;P2;durP2;ratioP2
21480;SDS011;10902;48.158;8.634;2023-07-13T00:00:18;4.10;;;2.10;;
21480;SDS011;10902;48.158;8.634;2023-07-13T00:03:04;6.30;;;2.33;;
21480;SDS011;10902;48.158;8.634;2023-07-13T00:05:57;4.50;;;1.80;;
21480;SDS011;10902;48.158;8.634;2023-07-13T00:08:43;6.53;;;2.40;;
21480;SDS011;10902;48.158;8.634;2023-07-13T00:11:29;4.47;;;2.00;;
21480;SDS011;10902;48.158;8.634;2023-07-13T00:14:15;4.57;;;1.95;;
21480;SDS011;10902;48.158;8.634;2023-07-13T00:17:00;4.32;;;2.38;;
21480;SDS011;10902;48.158;8.634;2023-07-13T00:19:46;5.50;;;2.30;;
21480;SDS011;10902;48.158;8.634;2023-07-13T00:22:32;6.10;;;2.20;;
21480;SDS011;10902;48.158;8.634;2023-07-13T00:25:18;7.10;;;3.20;;
21480;SDS011;10902;48.158;8.634;2023-07-13T00:28:03;7.43;;;3.88;;
21480;SDS011;10902;48.158;8.634;2023-07-13T00:30:49;4.88;;;2.70;;
21480;SDS011;10902;48.158;8.634;2023-07-13T00:33:35;5.03;;;2.85;;
21480;SDS011;10902;48.158;8.634;2023-07-13T00:36:20;4.45;;;2.13;;
21480;SDS011;10902;48.158;8.634;2023-07-13T00:39:06;6.35;;;2.65;;
21480;SDS011;10902;48.158;8.634;2023-07-13T00:41:52;4.70;;;1.83;;
21480;SDS011;10902;48.158;8.634;2023-07-13T00:44:38;6.40;;;2.60;;
21480;SDS011;10902;48.158;8.634;2023-07-13T00:47:24;5.72;;;2.50;;
21480;SDS011;10902;48.158;8.634;2023-07-13T00:50:12;7.07;;;2.47;;
21480;SDS011;10902;48.158;8.634;2023-07-13T00:53:00;7.00;;;2.67;;
21480;SDS011;10902;48.158;8.634;2023-07-13T00:55:48;5.05;;;2.60;;
21480;SDS011;10902;48.158;8.634;2023-07-13T00:58:35;5.05;;;2.65;;
21480;SDS011;10902;48.158;8.634;2023-07-13T01:01:21;4.63;;;2.08;;
21480;SDS011;10902;48.158;8.634;2023-07-13T01:04:08;5.20;;;2.30;;
21480;SDS011;10902;48.158;8.634;2023-07-13T01:06:54;5.45;;;2.55;;
21480;SDS011;10902;48.158;8.634;2023-07-13T01:09:41;5.18;;;2.40;;
21480;SDS011;10902;48.158;8.634;2023-07-13T01:12:27;4.40;;;1.92;;
21480;SDS011;10902;48.158;8.634;2023-07-13T01:15:33;5.18;;;2.40;;
21480;SDS011;10902;48.158;8.634;2023-07-13T01:18:24;4.65;;;2.20;;
21480;SDS011;10902;48.158;8.634;2023-07-13T01:21:11;4.32;;;2.05;;
21480;SDS011;10902;48.158;8.634;2023-07-13T01:23:56;5.40;;;2.50;;
21480;SDS011;10902;48.158;8.634;2023-07-13T01:26:43;7.97;;;3.05;;
21480;SDS011;10902;48.158;8.634;2023-07-13T01:29:29;7.40;;;2.70;;
21480;SDS011;10902;48.158;8.634;2023-07-13T01:32:17;6.30;;;2.58;;
21480;SDS011;10902;48.158;8.634;2023-07-13T01:35:09;4.53;;;1.90;;
21480;SDS011;10902;48.158;8.634;2023-07-13T01:37:57;5.88;;;2.05;;
21480;SDS011;10902;48.158;8.634;2023-07-13T01:40:45;5.30;;;2.20;;
21480;SDS011;10902;48.158;8.634;2023-07-13T01:43:31;5.30;;;2.40;;
21480;SDS011;10902;48.158;8.634;2023-07-13T01:46:17;5.03;;;2.10;;
21480;SDS011;10902;48.158;8.634;2023-07-13T01:49:03;4.00;;;2.05;;
21480;SDS011;10902;48.158;8.634;2023-07-13T01:51:49;4.18;;;2.38;;
21480;SDS011;10902;48.158;8.634;2023-07-13T01:54:34;5.00;;;2.80;;
21480;SDS011;10902;48.158;8.634;2023-07-13T01:57:20;5.15;;;2.50;;
21480;SDS011;10902;48.158;8.634;2023-07-13T02:00:06;6.25;;;2.88;;
21480;SDS011;10902;48.158;8.634;2023-07-13T02:02:54;5.85;;;2.50;;
21480;SDS011;10902;48.158;8.634;2023-07-13T02:05:39;5.28;;;2.70;;
21480;SDS011;10902;48.158;8.634;2023-07-13T02:08:25;5.35;;;2.60;;
21480;SDS011;10902;48.158;8.634;2023-07-13T02:11:10;5.97;;;2.80;;
21480;SDS011;10902;48.158;8.634;2023-07-13T02:13:56;6.25;;;2.40;;
21480;SDS011;10902;48.158;8.634;2023-07-13T02:16:42;4.45;;;2.03;;
21480;SDS011;10902;48.158;8.634;2023-07-13T02:19:27;5.03;;;2.15;;
21480;SDS011;10902;48.158;8.634;2023-07-13T02:22:13;6.45;;;2.67;;
21480;SDS011;10902;48.158;8.634;2023-07-13T02:24:59;6.30;;;3.00;;
21480;SDS011;10902;48.158;8.634;2023-07-13T02:27:45;5.32;;;2.50;;
21480;SDS011;10902;48.158;8.634;2023-07-13T02:30:30;4.88;;;2.28;;
21480;SDS011;10902;48.158;8.634;2023-07-13T02:33:16;6.60;;;2.42;;
21480;SDS011;10902;48.158;8.634;2023-07-13T02:36:02;5.97;;;2.50;;
21480;SDS011;10902;48.158;8.634;2023-07-13T02:38:49;5.95;;;3.08;;
21480;SDS011;10902;48.158;8.634;2023-07-13T02:41:56;6.95;;;3.00;;
21480;SDS011;10902;48.158;8.634;2023-07-13T02:44:42;7.57;;;2.80;;
21480;SDS011;10902;48.158;8.634;2023-07-13T02:47:28;5.53;;;2.17;;
21480;SDS011;10902;48.158;8.634;2023-07-13T02:50:13;6.10;;;2.65;;
21480;SDS011;10902;48.158;8.634;2023-07-13T02:52:59;6.35;;;2.97;;
21480;SDS011;10902;48.158;8.634;2023-07-13T02:55:44;7.82;;;2.38;;
21480;SDS011;10902;48.158;8.634;2023-07-13T02:58:32;4.72;;;1.70;;
21480;SDS011;10902;48.158;8.634;2023-07-13T03:01:21;5.68;;;2.20;;
21480;SDS011;10902;48.158;8.634;2023-07-13T03:04:07;5.38;;;2.20;;
21480;SDS011;10902;48.158;8.634;2023-07-13T03:06:53;4.78;;;2.05;;
21480;SDS011;10902;48.158;8.634;2023-07-13T03:09:42;6.32;;;1.98;;
21480;SDS011;10902;48.158;8.634;2023-07-13T03:12:28;5.43;;;1.98;;
21480;SDS011;10902;48.158;8.634;2023-07-13T03:15:13;3.63;;;1.80;;
21480;SDS011;10902;48.158;8.634;2023-07-13T03:17:59;5.30;;;1.92;;
21480;SDS011;10902;48.158;8.634;2023-07-13T03:20:45;6.93;;;2.47;;
21480;SDS011;10902;48.158;8.634;2023-07-13T03:23:31;3.85;;;2.10;;
21480;SDS011;10902;48.158;8.634;2023-07-13T03:26:18;6.28;;;2.30;;
21480;SDS011;10902;48.158;8.634;2023-07-13T03:29:05;5.32;;;2.45;;
21480;SDS011;10902;48.158;8.634;2023-07-13T03:31:51;4.78;;;2.40;;
21480;SDS011;10902;48.158;8.634;2023-07-13T03:34:36;6.53;;;2.33;;
21480;SDS011;10902;48.158;8.634;2023-07-13T03:37:22;4.78;;;2.33;;
21480;SDS011;10902;48.158;8.634;2023-07-13T03:40:09;4.88;;;2.28;;
21480;SDS011;10902;48.158;8.634;2023-07-13T03:42:55;4.45;;;1.98;;
21480;SDS011;10902;48.158;8.634;2023-07-13T03:45:41;6.30;;;2.95;;
21480;SDS011;10902;48.158;8.634;2023-07-13T03:48:27;5.85;;;2.80;;
21480;SDS011;10902;48.158;8.634;2023-07-13T03:51:13;4.50;;;2.60;;
21480;SDS011;10902;48.158;8.634;2023-07-13T03:54:00;5.45;;;3.00;;
21480;SDS011;10902;48.158;8.634;2023-07-13T03:56:47;6.43;;;3.13;;
21480;SDS011;10902;48.158;8.634;2023-07-13T03:59:33;5.57;;;2.58;;
21480;SDS011;10902;48.158;8.634;2023-07-13T04:02:19;5.93;;;3.22;;
21480;SDS011;10902;48.158;8.634;2023-07-13T04:05:05;5.72;;;2.88;;
21480;SDS011;10902;48.158;8.634;2023-07-13T04:07:51;4.45;;;2.47;;
21480;SDS011;10902;48.158;8.634;2023-07-13T04:10:37;4.95;;;2.30;;
21480;SDS011;10902;48.158;8.634;2023-07-13T04:13:24;6.43;;;2.40;;
21480;SDS011;10902;48.158;8.634;2023-07-13T04:16:10;5.78;;;2.58;;
21480;SDS011;10902;48.158;8.634;2023-07-13T04:18:56;8.13;;;2.65;;
21480;SDS011;10902;48.158;8.634;2023-07-13T04:21:44;6.32;;;2.55;;
21480;SDS011;10902;48.158;8.634;2023-07-13T04:24:30;7.32;;;3.13;;
21480;SDS011;10902;48.158;8.634;2023-07-13T04:27:16;6.70;;;2.85;;
21480;SDS011;10902;48.158;8.634;2023-07-13T04:30:01;5.93;;;2.38;;
21480;SDS011;10902;48.158;8.634;2023-07-13T04:32:49;6.07;;;2.42;;
21480;SDS011;10902;48.158;8.634;2023-07-13T04:35:38;4.03;;;2.08;;
21480;SDS011;10902;48.158;8.634;2023-07-13T04:38:25;3.97;;;2.28;;
21480;SDS011;10902;48.158;8.634;2023-07-13T04:41:13;5.38;;;2.45;;
21480;SDS011;10902;48.158;8.634;2023-07-13T04:44:00;8.00;;;2.92;;
21480;SDS011;10902;48.158;8.634;2023-07-13T04:46:45;6.63;;;2.67;;
21480;SDS011;10902;48.158;8.634;2023-07-13T04:49:31;6.20;;;2.50;;
21480;SDS011;10902;48.158;8.634;2023-07-13T04:52:17;6.25;;;2.70;;
21480;SDS011;10902;48.158;8.634;2023-07-13T04:55:02;5.93;;;2.22;;
21480;SDS011;10902;48.158;8.634;2023-07-13T04:57:48;5.93;;;2.17;;
21480;SDS011;10902;48.158;8.634;2023-07-13T05:00:34;5.05;;;2.20;;
21480;SDS011;10902;48.158;8.634;2023-07-13T05:03:19;5.28;;;2.00;;
21480;SDS011;10902;48.158;8.634;2023-07-13T05:06:06;5.82;;;2.13;;
21480;SDS011;10902;48.158;8.634;2023-07-13T05:08:55;4.80;;;2.25;;
21480;SDS011;10902;48.158;8.634;2023-07-13T05:11:40;8.43;;;2.67;;
21480;SDS011;10902;48.158;8.634;2023-07-13T05:14:26;5.15;;;2.58;;
21480;SDS011;10902;48.158;8.634;2023-07-13T05:17:11;5.35;;;2.22;;
21480;SDS011;10902;48.158;8.634;2023-07-13T05:19:57;4.93;;;2.00;;
21480;SDS011;10902;48.158;8.634;2023-07-13T05:22:43;4.90;;;2.13;;
21480;SDS011;10902;48.158;8.634;2023-07-13T05:25:28;7.05;;;2.05;;
21480;SDS011;10902;48.158;8.634;2023-07-13T05:28:14;4.72;;;2.08;;
21480;SDS011;10902;48.158;8.634;2023-07-13T05:31:00;4.88;;;1.70;;
21480;SDS011;10902;48.158;8.634;2023-07-13T05:33:46;6.78;;;2.00;;
21480;SDS011;10902;48.158;8.634;2023-07-13T05:36:31;4.43;;;1.60;;
21480;SDS011;10902;48.158;8.634;2023-07-13T05:39:17;6.72;;;2.50;;
21480;SDS011;10902;48.158;8.634;2023-07-13T05:42:02;7.85;;;2.47;;
21480;SDS011;10902;48.158;8.634;2023-07-13T05:44:48;4.68;;;2.35;;
21480;SDS011;10902;48.158;8.634;2023-07-13T05:47:34;7.45;;;2.40;;
21480;SDS011;10902;48.158;8.634;2023-07-13T05:50:20;7.57;;;2.47;;
21480;SDS011;10902;48.158;8.634;2023-07-13T05:53:06;4.43;;;1.88;;
21480;SDS011;10902;48.158;8.634;2023-07-13T05:55:52;4.63;;;2.00;;
21480;SDS011;10902;48.158;8.634;2023-07-13T05:58:40;6.43;;;2.17;;
21480;SDS011;10902;48.158;8.634;2023-07-13T06:01:26;4.25;;;1.85;;
21480;SDS011;10902;48.158;8.634;2023-07-13T06:04:12;5.82;;;1.80;;
21480;SDS011;10902;48.158;8.634;2023-07-13T06:06:57;4.97;;;1.73;;
21480;SDS011;10902;48.158;8.634;2023-07-13T06:09:43;5.13;;;2.00;;
21480;SDS011;10902;48.158;8.634;2023-07-13T06:12:29;7.30;;;2.22;;
21480;SDS011;10902;48.158;8.634;2023-07-13T06:15:14;5.82;;;2.10;;
21480;SDS011;10902;48.158;8.634;2023-07-13T06:18:00;7.03;;;2.10;;
21480;SDS011;10902;48.158;8.634;2023-07-13T06:20:46;10.40;;;2.00;;
21480;SDS011;10902;48.158;8.634;2023-07-13T06:23:32;6.78;;;1.90;;
21480;SDS011;10902;48.158;8.634;2023-07-13T06:26:18;6.53;;;1.90;;
21480;SDS011;10902;48.158;8.634;2023-07-13T06:29:05;10.70;;;2.00;;
21480;SDS011;10902;48.158;8.634;2023-07-13T06:31:51;6.53;;;2.00;;
21480;SDS011;10902;48.158;8.634;2023-07-13T06:34:36;6.90;;;2.00;;
21480;SDS011;10902;48.158;8.634;2023-07-13T06:37:22;6.20;;;1.38;;
21480;SDS011;10902;48.158;8.634;2023-07-13T06:40:08;6.20;;;1.40;;
21480;SDS011;10902;48.158;8.634;2023-07-13T06:42:54;5.28;;;1.42;;
21480;SDS011;10902;48.158;8.634;2023-07-13T06:45:40;6.93;;;1.40;;
21480;SDS011;10902;48.158;8.634;2023-07-13T06:48:32;6.00;;;1.55;;
21480;SDS011;10902;48.158;8.634;2023-07-13T06:51:17;4.47;;;1.30;;
21480;SDS011;10902;48.158;8.634;2023-07-13T06:54:03;8.07;;;1.80;;
21480;SDS011;10902;48.158;8.634;2023-07-13T06:56:50;6.07;;;1.50;;
21480;SDS011;10902;48.158;8.634;2023-07-13T06:59:36;5.30;;;1.35;;
21480;SDS011;10902;48.158;8.634;2023-07-13T07:02:21;3.60;;;1.30;;
21480;SDS011;10902;48.158;8.634;2023-07-13T07:05:07;6.30;;;1.67;;
21480;SDS011;10902;48.158;8.634;2023-07-13T07:07:54;7.00;;;1.45;;
21480;SDS011;10902;48.158;8.634;2023-07-13T07:10:40;5.45;;;1.27;;
21480;SDS011;10902;48.158;8.634;2023-07-13T07:13:25;6.32;;;1.65;;
21480;SDS011;10902;48.158;8.634;2023-07-13T07:16:13;4.80;;;1.48;;
21480;SDS011;10902;48.158;8.634;2023-07-13T07:18:59;6.13;;;1.50;;
21480;SDS011;10902;48.158;8.634;2023-07-13T07:21:45;5.50;;;1.48;;
21480;SDS011;10902;48.158;8.634;2023-07-13T07:24:30;5.43;;;1.42;;
21480;SDS011;10902;48.158;8.634;2023-07-13T07:27:16;7.57;;;1.70;;
21480;SDS011;10902;48.158;8.634;2023-07-13T07:30:01;7.07;;;1.50;;
21480;SDS011;10902;48.158;8.634;2023-07-13T07:32:47;6.78;;;1.60;;
21480;SDS011;10902;48.158;8.634;2023-07-13T07:35:33;5.35;;;1.33;;
21480;SDS011;10902;48.158;8.634;2023-07-13T07:38:19;4.88;;;1.25;;
21480;SDS011;10902;48.158;8.634;2023-07-13T07:41:05;5.85;;;1.52;;
21480;SDS011;10902;48.158;8.634;2023-07-13T07:43:50;4.25;;;1.30;;
21480;SDS011;10902;48.158;8.634;2023-07-13T07:46:36;7.75;;;1.63;;
21480;SDS011;10902;48.158;8.634;2023-07-13T07:49:23;7.50;;;1.30;;
21480;SDS011;10902;48.158;8.634;2023-07-13T07:52:09;8.43;;;1.40;;
21480;SDS011;10902;48.158;8.634;2023-07-13T07:54:54;6.18;;;1.33;;
21480;SDS011;10902;48.158;8.634;2023-07-13T07:57:40;6.10;;;1.10;;
21480;SDS011;10902;48.158;8.634;2023-07-13T08:00:29;6.72;;;1.52;;
21480;SDS011;10902;48.158;8.634;2023-07-13T08:03:16;5.10;;;1.30;;
21480;SDS011;10902;48.158;8.634;2023-07-13T08:06:02;6.20;;;1.33;;
21480;SDS011;10902;48.158;8.634;2023-07-13T08:08:48;6.40;;;1.60;;
21480;SDS011;10902;48.158;8.634;2023-07-13T08:11:33;9.35;;;1.40;;
21480;SDS011;10902;48.158;8.634;2023-07-13T08:14:20;6.00;;;1.40;;
21480;SDS011;10902;48.158;8.634;2023-07-13T08:17:06;5.97;;;1.33;;
21480;SDS011;10902;48.158;8.634;2023-07-13T08:19:52;5.85;;;1.30;;
21480;SDS011;10902;48.158;8.634;2023-07-13T08:22:39;3.45;;;1.30;;
21480;SDS011;10902;48.158;8.634;2023-07-13T08:25:25;3.53;;;1.30;;
21480;SDS011;10902;48.158;8.634;2023-07-13T08:28:11;4.78;;;1.40;;
21480;SDS011;10902;48.158;8.634;2023-07-13T08:31:01;5.07;;;1.10;;
21480;SDS011;10902;48.158;8.634;2023-07-13T08:33:48;5.40;;;1.27;;
21480;SDS011;10902;48.158;8.634;2023-07-13T08:36:36;11.40;;;1.60;;
21480;SDS011;10902;48.158;8.634;2023-07-13T08:39:22;6.20;;;1.35;;
21480;SDS011;10902;48.158;8.634;2023-07-13T08:45:13;4.50;;;1.30;;
21480;SDS011;10902;48.158;8.634;2023-07-13T08:48:08;5.65;;;1.50;;
21480;SDS011;10902;48.158;8.634;2023-07-13T08:51:02;6.82;;;1.55;;
21480;SDS011;10902;48.158;8.634;2023-07-13T08:53:54;5.35;;;1.17;;
21480;SDS011;10902;48.158;8.634;2023-07-13T08:56:44;4.25;;;1.10;;
21480;SDS011;10902;48.158;8.634;2023-07-13T08:59:32;6.47;;;1.52;;
21480;SDS011;10902;48.158;8.634;2023-07-13T09:02:24;3.83;;;1.40;;
21480;SDS011;10902;48.158;8.634;2023-07-13T09:14:31;5.20;;;1.50;;
21480;SDS011;10902;48.158;8.634;2023-07-13T09:17:22;6.07;;;1.35;;
21480;SDS011;10902;48.158;8.634;2023-07-13T09:23:12;4.70;;;1.27;;
21480;SDS011;10902;48.158;8.634;2023-07-13T09:29:13;6.97;;;1.35;;
21480;SDS011;10902;48.158;8.634;2023-07-13T09:32:06;6.78;;;1.35;;
21480;SDS011;10902;48.158;8.634;2023-07-13T09:34:55;6.03;;;1.15;;
21480;SDS011;10902;48.158;8.634;2023-07-13T09:37:41;5.82;;;1.52;;
21480;SDS011;10902;48.158;8.634;2023-07-13T09:40:40;5.22;;;1.30;;
21480;SDS011;10902;48.158;8.634;2023-07-13T09:46:58;6.00;;;1.40;;
21480;SDS011;10902;48.158;8.634;2023-07-13T09:49:45;4.80;;;1.45;;
21480;SDS011;10902;48.158;8.634;2023-07-13T09:52:41;9.73;;;1.42;;
21480;SDS011;10902;48.158;8.634;2023-07-13T09:55:35;4.30;;;1.17;;
21480;SDS011;10902;48.158;8.634;2023-07-13T09:58:24;5.35;;;1.15;;
21480;SDS011;10902;48.158;8.634;2023-07-13T10:01:14;5.10;;;1.33;;
21480;SDS011;10902;48.158;8.634;2023-07-13T10:04:00;6.07;;;1.10;;
21480;SDS011;10902;48.158;8.634;2023-07-13T10:06:46;6.50;;;1.00;;
21480;SDS011;10902;48.158;8.634;2023-07-13T10:09:32;4.90;;;1.50;;
21480;SDS011;10902;48.158;8.634;2023-07-13T10:12:18;6.30;;;1.35;;
21480;SDS011;10902;48.158;8.634;2023-07-13T10:15:04;3.65;;;1.20;;
21480;SDS011;10902;48.158;8.634;2023-07-13T10:17:59;3.78;;;1.20;;
21480;SDS011;10902;48.158;8.634;2023-07-13T10:20:45;4.88;;;1.38;;
21480;SDS011;10902;48.158;8.634;2023-07-13T10:23:31;5.75;;;1.30;;
21480;SDS011;10902;48.158;8.634;2023-07-13T10:26:22;4.45;;;1.10;;
21480;SDS011;10902;48.158;8.634;2023-07-13T10:29:12;4.78;;;1.40;;
21480;SDS011;10902;48.158;8.634;2023-07-13T10:32:00;3.80;;;1.10;;
21480;SDS011;10902;48.158;8.634;2023-07-13T10:34:46;4.05;;;1.17;;
21480;SDS011;10902;48.158;8.634;2023-07-13T10:37:44;5.70;;;1.27;;
21480;SDS011;10902;48.158;8.634;2023-07-13T10:40:42;3.78;;;1.02;;
21480;SDS011;10902;48.158;8.634;2023-07-13T10:43:34;4.40;;;1.23;;
21480;SDS011;10902;48.158;8.634;2023-07-13T10:46:35;3.55;;;0.82;;
21480;SDS011;10902;48.158;8.634;2023-07-13T10:49:22;5.65;;;1.05;;
21480;SDS011;10902;48.158;8.634;2023-07-13T10:58:19;5.40;;;1.45;;
21480;SDS011;10902;48.158;8.634;2023-07-13T11:03:59;3.22;;;1.20;;
21480;SDS011;10902;48.158;8.634;2023-07-13T11:06:48;3.92;;;1.08;;
21480;SDS011;10902;48.158;8.634;2023-07-13T11:09:40;3.17;;;1.05;;
21480;SDS011;10902;48.158;8.634;2023-07-13T11:24:58;3.38;;;1.05;;
21480;SDS011;10902;48.158;8.634;2023-07-13T11:27:46;2.67;;;0.90;;
21480;SDS011;10902;48.158;8.634;2023-07-13T11:30:37;5.75;;;1.33;;
21480;SDS011;10902;48.158;8.634;2023-07-13T11:36:24;3.95;;;1.00;;
21480;SDS011;10902;48.158;8.634;2023-07-13T11:39:18;5.20;;;1.95;;
21480;SDS011;10902;48.158;8.634;2023-07-13T11:42:12;2.70;;;0.98;;
21480;SDS011;10902;48.158;8.634;2023-07-13T11:45:00;3.53;;;0.93;;
21480;SDS011;10902;48.158;8.634;2023-07-13T11:47:46;3.13;;;1.10;;
21480;SDS011;10902;48.158;8.634;2023-07-13T11:50:31;4.25;;;1.00;;
21480;SDS011;10902;48.158;8.634;2023-07-13T11:53:17;5.35;;;1.10;;
21480;SDS011;10902;48.158;8.634;2023-07-13T11:56:02;6.38;;;1.20;;
21480;SDS011;10902;48.158;8.634;2023-07-13T11:58:49;3.97;;;0.98;;
21480;SDS011;10902;48.158;8.634;2023-07-13T12:01:41;5.55;;;1.13;;
21480;SDS011;10902;48.158;8.634;2023-07-13T12:04:31;3.85;;;1.17;;
21480;SDS011;10902;48.158;8.634;2023-07-13T12:07:19;3.08;;;0.85;;
21480;SDS011;10902;48.158;8.634;2023-07-13T12:13:04;2.85;;;0.90;;
21480;SDS011;10902;48.158;8.634;2023-07-13T12:15:51;3.90;;;0.80;;
21480;SDS011;10902;48.158;8.634;2023-07-13T12:18:37;3.65;;;1.42;;
21480;SDS011;10902;48.158;8.634;2023-07-13T12:21:27;3.42;;;0.90;;
21480;SDS011;10902;48.158;8.634;2023-07-13T12:24:17;6.03;;;1.10;;
21480;SDS011;10902;48.158;8.634;2023-07-13T12:27:04;2.65;;;0.90;;
21480;SDS011;10902;48.158;8.634;2023-07-13T12:30:04;4.72;;;0.80;;
21480;SDS011;10902;48.158;8.634;2023-07-13T12:33:08;4.25;;;1.17;;
21480;SDS011;10902;48.158;8.634;2023-07-13T12:35:56;4.00;;;1.25;;
21480;SDS011;10902;48.158;8.634;2023-07-13T12:38:44;7.05;;;0.90;;
21480;SDS011;10902;48.158;8.634;2023-07-13T12:41:31;3.03;;;1.02;;
21480;SDS011;10902;48.158;8.634;2023-07-13T12:44:21;3.45;;;1.05;;
21480;SDS011;10902;48.158;8.634;2023-07-13T12:47:19;3.10;;;0.98;;
21480;SDS011;10902;48.158;8.634;2023-07-13T12:50:14;4.20;;;0.90;;
21480;SDS011;10902;48.158;8.634;2023-07-13T12:53:05;3.67;;;1.15;;
21480;SDS011;10902;48.158;8.634;2023-07-13T12:55:55;6.75;;;1.00;;
21480;SDS011;10902;48.158;8.634;2023-07-13T12:58:46;6.05;;;1.10;;
21480;SDS011;10902;48.158;8.634;2023-07-13T13:01:35;4.90;;;1.20;;
21480;SDS011;10902;48.158;8.634;2023-07-13T13:04:24;3.33;;;0.90;;
21480;SDS011;10902;48.158;8.634;2023-07-13T13:07:10;3.33;;;0.85;;
21480;SDS011;10902;48.158;8.634;2023-07-13T13:09:55;3.35;;;0.95;;
21480;SDS011;10902;48.158;8.634;2023-07-13T13:12:41;4.28;;;1.00;;
21480;SDS011;10902;48.158;8.634;2023-07-13T13:15:30;3.38;;;0.98;;
21480;SDS011;10902;48.158;8.634;2023-07-13T13:18:24;3.88;;;0.95;;
21480;SDS011;10902;48.158;8.634;2023-07-13T13:21:10;4.15;;;0.90;;
21480;SDS011;10902;48.158;8.634;2023-07-13T13:23:56;3.67;;;1.02;;
21480;SDS011;10902;48.158;8.634;2023-07-13T13:26:43;4.50;;;1.08;;
21480;SDS011;10902;48.158;8.634;2023-07-13T13:29:34;3.63;;;1.17;;
21480;SDS011;10902;48.158;8.634;2023-07-13T13:32:22;4.90;;;1.40;;
21480;SDS011;10902;48.158;8.634;2023-07-13T13:35:18;3.08;;;0.95;;
21480;SDS011;10902;48.158;8.634;2023-07-13T13:38:15;3.47;;;1.10;;
21480;SDS011;10902;48.158;8.634;2023-07-13T13:41:09;4.97;;;1.10;;
21480;SDS011;10902;48.158;8.634;2023-07-13T13:43:56;6.05;;;1.13;;
21480;SDS011;10902;48.158;8.634;2023-07-13T13:46:43;3.70;;;1.27;;
21480;SDS011;10902;48.158;8.634;2023-07-13T13:49:30;3.15;;;1.20;;
21480;SDS011;10902;48.158;8.634;2023-07-13T13:52:16;4.75;;;1.25;;
21480;SDS011;10902;48.158;8.634;2023-07-13T13:55:10;7.75;;;1.23;;
21480;SDS011;10902;48.158;8.634;2023-07-13T13:58:00;4.78;;;1.10;;
21480;SDS011;10902;48.158;8.634;2023-07-13T14:00:47;3.83;;;1.25;;
21480;SDS011;10902;48.158;8.634;2023-07-13T14:03:35;5.32;;;1.42;;
21480;SDS011;10902;48.158;8.634;2023-07-13T14:06:20;2.92;;;1.00;;
21480;SDS011;10902;48.158;8.634;2023-07-13T14:09:09;4.93;;;1.00;;
21480;SDS011;10902;48.158;8.634;2023-07-13T14:11:57;7.32;;;1.33;;
21480;SDS011;10902;48.158;8.634;2023-07-13T14:14:42;3.17;;;1.05;;
21480;SDS011;10902;48.158;8.634;2023-07-13T14:17:28;3.45;;;0.98;;
21480;SDS011;10902;48.158;8.634;2023-07-13T14:20:14;4.95;;;1.10;;
21480;SDS011;10902;48.158;8.634;2023-07-13T14:23:00;3.17;;;0.85;;
21480;SDS011;10902;48.158;8.634;2023-07-13T14:25:46;3.63;;;1.20;;
21480;SDS011;10902;48.158;8.634;2023-07-13T14:28:32;3.85;;;1.20;;
21480;SDS011;10902;48.158;8.634;2023-07-13T14:31:18;4.38;;;1.10;;
21480;SDS011;10902;48.158;8.634;2023-07-13T14:34:04;4.05;;;0.93;;
21480;SDS011;10902;48.158;8.634;2023-07-13T14:36:50;3.67;;;1.20;;
21480;SDS011;10902;48.158;8.634;2023-07-13T14:39:36;4.03;;;0.90;;
21480;SDS011;10902;48.158;8.634;2023-07-13T14:42:23;7.30;;;1.38;;
21480;SDS011;10902;48.158;8.634;2023-07-13T14:45:12;5.30;;;1.50;;
21480;SDS011;10902;48.158;8.634;2023-07-13T14:48:00;5.38;;;1.15;;
21480;SDS011;10902;48.158;8.634;2023-07-13T14:50:46;4.97;;;1.20;;
21480;SDS011;10902;48.158;8.634;2023-07-13T14:53:35;5.80;;;1.38;;
21480;SDS011;10902;48.158;8.634;2023-07-13T14:56:24;4.38;;;1.05;;
21480;SDS011;10902;48.158;8.634;2023-07-13T14:59:10;4.85;;;1.00;;
21480;SDS011;10902;48.158;8.634;2023-07-13T15:01:57;4.03;;;1.13;;
21480;SDS011;10902;48.158;8.634;2023-07-13T15:04:43;5.10;;;1.30;;
21480;SDS011;10902;48.158;8.634;2023-07-13T15:07:28;4.03;;;0.90;;
21480;SDS011;10902;48.158;8.634;2023-07-13T15:10:15;4.82;;;1.23;;
21480;SDS011;10902;48.158;8.634;2023-07-13T15:13:21;5.13;;;1.20;;
21480;SDS011;10902;48.158;8.634;2023-07-13T15:16:19;3.88;;;1.38;;
21480;SDS011;10902;48.158;8.634;2023-07-13T15:19:09;5.13;;;1.20;;
21480;SDS011;10902;48.158;8.634;2023-07-13T15:21:55;6.10;;;1.30;;
21480;SDS011;10902;48.158;8.634;2023-07-13T15:24:42;3.78;;;1.10;;
21480;SDS011;10902;48.158;8.634;2023-07-13T15:27:28;3.97;;;1.15;;
21480;SDS011;10902;48.158;8.634;2023-07-13T15:30:14;3.50;;;1.20;;
21480;SDS011;10902;48.158;8.634;2023-07-13T15:33:01;4.40;;;1.15;;
21480;SDS011;10902;48.158;8.634;2023-07-13T15:35:56;4.28;;;1.17;;
21480;SDS011;10902;48.158;8.634;2023-07-13T15:38:43;5.18;;;1.33;;
21480;SDS011;10902;48.158;8.634;2023-07-13T15:41:30;5.38;;;1.33;;
21480;SDS011;10902;48.158;8.634;2023-07-13T15:44:22;4.75;;;1.25;;
21480;SDS011;10902;48.158;8.634;2023-07-13T15:47:11;7.70;;;1.50;;
21480;SDS011;10902;48.158;8.634;2023-07-13T15:50:00;3.67;;;1.38;;
21480;SDS011;10902;48.158;8.634;2023-07-13T15:52:53;5.30;;;1.30;;
21480;SDS011;10902;48.158;8.634;2023-07-13T15:55:40;5.07;;;1.25;;
21480;SDS011;10902;48.158;8.634;2023-07-13T15:58:26;4.38;;;1.33;;
21480;SDS011;10902;48.158;8.634;2023-07-13T16:01:13;3.70;;;1.15;;
21480;SDS011;10902;48.158;8.634;2023-07-13T16:03:59;5.93;;;1.52;;
21480;SDS011;10902;48.158;8.634;2023-07-13T16:06:45;5.22;;;1.40;;
21480;SDS011;10902;48.158;8.634;2023-07-13T16:09:31;3.85;;;1.15;;
21480;SDS011;10902;48.158;8.634;2023-07-13T16:12:17;7.40;;;1.70;;
21480;SDS011;10902;48.158;8.634;2023-07-13T16:15:02;3.53;;;1.00;;
21480;SDS011;10902;48.158;8.634;2023-07-13T16:17:50;8.82;;;1.35;;
21480;SDS011;10902;48.158;8.634;2023-07-13T16:20:36;3.40;;;1.10;;
21480;SDS011;10902;48.158;8.634;2023-07-13T16:23:22;8.77;;;1.75;;
21480;SDS011;10902;48.158;8.634;2023-07-13T16:26:15;4.57;;;1.10;;
21480;SDS011;10902;48.158;8.634;2023-07-13T16:29:28;3.67;;;1.15;;
21480;SDS011;10902;48.158;8.634;2023-07-13T16:32:15;5.40;;;1.15;;
21480;SDS011;10902;48.158;8.634;2023-07-13T16:35:00;3.85;;;1.25;;
21480;SDS011;10902;48.158;8.634;2023-07-13T16:37:46;3.88;;;1.27;;
21480;SDS011;10902;48.158;8.634;2023-07-13T16:40:33;3.83;;;1.08;;
21480;SDS011;10902;48.158;8.634;2023-07-13T16:43:19;5.07;;;1.10;;
21480;SDS011;10902;48.158;8.634;2023-07-13T16:46:07;6.18;;;1.23;;
21480;SDS011;10902;48.158;8.634;2023-07-13T16:48:56;3.83;;;1.10;;
21480;SDS011;10902;48.158;8.634;2023-07-13T16:51:44;6.97;;;1.27;;
21480;SDS011;10902;48.158;8.634;2023-07-13T16:54:36;4.45;;;1.50;;
21480;SDS011;10902;48.158;8.634;2023-07-13T16:57:25;3.97;;;1.25;;
21480;SDS011;10902;48.158;8.634;2023-07-13T17:00:20;5.80;;;1.45;;
21480;SDS011;10902;48.158;8.634;2023-07-13T17:03:12;4.38;;;1.20;;
21480;SDS011;10902;48.158;8.634;2023-07-13T17:05:58;7.38;;;1.50;;
21480;SDS011;10902;48.158;8.634;2023-07-13T17:08:45;5.35;;;1.42;;
21480;SDS011;10902;48.158;8.634;2023-07-13T17:11:30;4.88;;;1.10;;
21480;SDS011;10902;48.158;8.634;2023-07-13T17:14:17;4.07;;;1.20;;
21480;SDS011;10902;48.158;8.634;2023-07-13T17:17:05;5.45;;;1.20;;
21480;SDS011;10902;48.158;8.634;2023-07-13T17:20:05;4.32;;;1.45;;
21480;SDS011;10902;48.158;8.634;2023-07-13T17:23:23;3.75;;;1.20;;
21480;SDS011;10902;48.158;8.634;2023-07-13T17:26:10;4.60;;;1.33;;
21480;SDS011;10902;48.158;8.634;2023-07-13T17:28:56;5.75;;;1.42;;
21480;SDS011;10902;48.158;8.634;2023-07-13T17:31:42;4.13;;;1.25;;
21480;SDS011;10902;48.158;8.634;2023-07-13T17:34:28;4.13;;;1.33;;
21480;SDS011;10902;48.158;8.634;2023-07-13T17:37:14;4.07;;;1.35;;
21480;SDS011;10902;48.158;8.634;2023-07-13T17:40:03;3.80;;;1.02;;